sensor_id;sensor_type;location;lat;lon;timestamp;P1;durP1;ratioP1;P2;durP2;ratioP2
74626;SDS011;63132;52.268;5.192;2022-12-10T00:01:08;108.40;;;50.60;;
74626;SDS011;63132;52.268;5.192;2022-12-10T00:03:36;108.05;;;50.80;;
74626;SDS011;63132;52.268;5.192;2022-12-10T00:06:02;115.67;;;51.47;;
74626;SDS011;63132;52.268;5.192;2022-12-10T00:08:30;116.50;;;51.10;;
74626;SDS011;63132;52.268;5.192;2022-12-10T00:10:55;117.40;;;50.97;;
74626;SDS011;63132;52.268;5.192;2022-12-10T00:13:21;121.20;;;51.53;;
74626;SDS011;63132;52.268;5.192;2022-12-10T00:15:47;125.93;;;53.42;;
74626;SDS011;63132;52.268;5.192;2022-12-10T00:18:13;118.45;;;51.83;;
74626;SDS011;63132;52.268;5.192;2022-12-10T00:20:39;125.50;;;53.25;;
74626;SDS011;63132;52.268;5.192;2022-12-10T00:23:04;130.77;;;54.67;;
74626;SDS011;63132;52.268;5.192;2022-12-10T00:25:32;122.40;;;54.08;;
74626;SDS011;63132;52.268;5.192;2022-12-10T00:27:58;123.55;;;53.65;;
74626;SDS011;63132;52.268;5.192;2022-12-10T00:30:24;119.63;;;53.13;;
74626;SDS011;63132;52.268;5.192;2022-12-10T00:32:49;123.75;;;53.53;;
74626;SDS011;63132;52.268;5.192;2022-12-10T00:35:15;117.00;;;51.70;;
74626;SDS011;63132;52.268;5.192;2022-12-10T00:37:40;118.50;;;50.97;;
74626;SDS011;63132;52.268;5.192;2022-12-10T00:40:06;110.05;;;49.75;;
74626;SDS011;63132;52.268;5.192;2022-12-10T00:42:32;119.95;;;51.45;;
74626;SDS011;63132;52.268;5.192;2022-12-10T00:44:57;120.63;;;51.20;;
74626;SDS011;63132;52.268;5.192;2022-12-10T00:47:22;124.20;;;54.42;;
74626;SDS011;63132;52.268;5.192;2022-12-10T00:49:48;127.05;;;52.90;;
74626;SDS011;63132;52.268;5.192;2022-12-10T00:52:13;124.37;;;51.50;;
74626;SDS011;63132;52.268;5.192;2022-12-10T00:54:39;114.80;;;50.57;;
74626;SDS011;63132;52.268;5.192;2022-12-10T00:57:04;120.57;;;50.73;;
74626;SDS011;63132;52.268;5.192;2022-12-10T00:59:30;115.50;;;50.67;;
74626;SDS011;63132;52.268;5.192;2022-12-10T01:01:55;115.43;;;52.10;;
74626;SDS011;63132;52.268;5.192;2022-12-10T01:04:21;114.73;;;49.73;;
74626;SDS011;63132;52.268;5.192;2022-12-10T01:06:50;121.03;;;51.05;;
74626;SDS011;63132;52.268;5.192;2022-12-10T01:09:18;136.90;;;50.60;;
74626;SDS011;63132;52.268;5.192;2022-12-10T01:11:46;126.68;;;50.63;;
74626;SDS011;63132;52.268;5.192;2022-12-10T01:14:16;143.68;;;49.40;;
74626;SDS011;63132;52.268;5.192;2022-12-10T01:16:46;115.07;;;47.70;;
74626;SDS011;63132;52.268;5.192;2022-12-10T01:19:12;129.48;;;48.85;;
74626;SDS011;63132;52.268;5.192;2022-12-10T01:21:37;114.90;;;46.80;;
74626;SDS011;63132;52.268;5.192;2022-12-10T01:24:03;115.80;;;45.15;;
74626;SDS011;63132;52.268;5.192;2022-12-10T01:26:30;130.90;;;46.55;;
74626;SDS011;63132;52.268;5.192;2022-12-10T01:28:57;130.45;;;47.50;;
74626;SDS011;63132;52.268;5.192;2022-12-10T01:31:24;116.97;;;44.03;;
74626;SDS011;63132;52.268;5.192;2022-12-10T01:33:54;157.73;;;44.10;;
74626;SDS011;63132;52.268;5.192;2022-12-10T01:36:24;177.87;;;44.47;;
74626;SDS011;63132;52.268;5.192;2022-12-10T01:38:54;184.88;;;42.38;;
74626;SDS011;63132;52.268;5.192;2022-12-10T01:41:24;101.80;;;39.67;;
74626;SDS011;63132;52.268;5.192;2022-12-10T01:46:30;154.38;;;38.63;;
74626;SDS011;63132;52.268;5.192;2022-12-10T01:48:58;115.57;;;37.38;;
74626;SDS011;63132;52.268;5.192;2022-12-10T01:51:25;149.52;;;39.25;;
74626;SDS011;63132;52.268;5.192;2022-12-10T01:53:53;159.32;;;39.85;;
74626;SDS011;63132;52.268;5.192;2022-12-10T01:56:19;114.87;;;39.77;;
74626;SDS011;63132;52.268;5.192;2022-12-10T01:58:45;108.07;;;37.63;;
74626;SDS011;63132;52.268;5.192;2022-12-10T02:07:04;100.95;;;35.08;;
74626;SDS011;63132;52.268;5.192;2022-12-10T02:09:48;135.02;;;37.67;;
74626;SDS011;63132;52.268;5.192;2022-12-10T02:15:23;98.80;;;37.75;;
74626;SDS011;63132;52.268;5.192;2022-12-10T02:18:00;119.03;;;37.57;;
74626;SDS011;63132;52.268;5.192;2022-12-10T02:20:37;101.10;;;40.28;;
74626;SDS011;63132;52.268;5.192;2022-12-10T02:23:13;102.72;;;38.97;;
74626;SDS011;63132;52.268;5.192;2022-12-10T02:26:25;113.03;;;39.15;;
74626;SDS011;63132;52.268;5.192;2022-12-10T02:31:23;125.78;;;39.95;;
74626;SDS011;63132;52.268;5.192;2022-12-10T02:33:55;113.82;;;39.80;;
74626;SDS011;63132;52.268;5.192;2022-12-10T02:36:25;123.20;;;41.00;;
74626;SDS011;63132;52.268;5.192;2022-12-10T02:38:56;114.80;;;41.03;;
74626;SDS011;63132;52.268;5.192;2022-12-10T02:41:26;138.65;;;41.15;;
74626;SDS011;63132;52.268;5.192;2022-12-10T02:43:55;116.75;;;39.58;;
74626;SDS011;63132;52.268;5.192;2022-12-10T02:46:24;107.53;;;39.10;;
74626;SDS011;63132;52.268;5.192;2022-12-10T02:48:53;105.80;;;40.97;;
74626;SDS011;63132;52.268;5.192;2022-12-10T02:51:19;128.57;;;40.65;;
74626;SDS011;63132;52.268;5.192;2022-12-10T02:53:44;151.03;;;39.83;;
74626;SDS011;63132;52.268;5.192;2022-12-10T02:56:22;151.63;;;43.65;;
74626;SDS011;63132;52.268;5.192;2022-12-10T03:01:41;118.95;;;42.42;;
74626;SDS011;63132;52.268;5.192;2022-12-10T03:04:16;157.20;;;44.15;;
74626;SDS011;63132;52.268;5.192;2022-12-10T03:07:02;145.50;;;43.92;;
74626;SDS011;63132;52.268;5.192;2022-12-10T03:09:37;135.23;;;44.22;;
74626;SDS011;63132;52.268;5.192;2022-12-10T03:12:12;138.63;;;45.50;;
74626;SDS011;63132;52.268;5.192;2022-12-10T03:14:45;178.50;;;45.95;;
74626;SDS011;63132;52.268;5.192;2022-12-10T03:17:11;205.93;;;46.75;;
74626;SDS011;63132;52.268;5.192;2022-12-10T03:19:42;141.32;;;45.25;;
74626;SDS011;63132;52.268;5.192;2022-12-10T03:22:11;178.70;;;44.60;;
74626;SDS011;63132;52.268;5.192;2022-12-10T03:24:38;258.25;;;45.10;;
74626;SDS011;63132;52.268;5.192;2022-12-10T03:27:07;166.15;;;44.90;;
74626;SDS011;63132;52.268;5.192;2022-12-10T03:29:44;134.95;;;43.60;;
74626;SDS011;63132;52.268;5.192;2022-12-10T03:32:12;181.07;;;47.53;;
74626;SDS011;63132;52.268;5.192;2022-12-10T03:34:39;259.80;;;49.57;;
74626;SDS011;63132;52.268;5.192;2022-12-10T03:37:06;222.77;;;47.15;;
74626;SDS011;63132;52.268;5.192;2022-12-10T03:39:32;151.98;;;43.25;;
74626;SDS011;63132;52.268;5.192;2022-12-10T03:41:58;192.57;;;45.08;;
74626;SDS011;63132;52.268;5.192;2022-12-10T03:44:31;155.77;;;44.13;;
74626;SDS011;63132;52.268;5.192;2022-12-10T03:46:58;130.52;;;44.30;;
74626;SDS011;63132;52.268;5.192;2022-12-10T03:49:24;153.23;;;42.72;;
74626;SDS011;63132;52.268;5.192;2022-12-10T03:51:50;213.43;;;45.47;;
74626;SDS011;63132;52.268;5.192;2022-12-10T03:54:15;135.53;;;42.13;;
74626;SDS011;63132;52.268;5.192;2022-12-10T03:56:41;174.45;;;44.33;;
74626;SDS011;63132;52.268;5.192;2022-12-10T03:59:07;174.33;;;43.80;;
74626;SDS011;63132;52.268;5.192;2022-12-10T04:01:32;134.70;;;42.63;;
74626;SDS011;63132;52.268;5.192;2022-12-10T04:03:57;143.67;;;43.57;;
74626;SDS011;63132;52.268;5.192;2022-12-10T04:06:23;199.97;;;42.83;;
74626;SDS011;63132;52.268;5.192;2022-12-10T04:08:48;154.10;;;41.50;;
74626;SDS011;63132;52.268;5.192;2022-12-10T04:11:14;192.73;;;43.33;;
74626;SDS011;63132;52.268;5.192;2022-12-10T04:13:41;215.40;;;42.28;;
74626;SDS011;63132;52.268;5.192;2022-12-10T04:16:25;202.90;;;42.60;;
74626;SDS011;63132;52.268;5.192;2022-12-10T04:18:52;172.77;;;43.55;;
74626;SDS011;63132;52.268;5.192;2022-12-10T04:21:24;127.68;;;43.60;;
74626;SDS011;63132;52.268;5.192;2022-12-10T04:24:10;137.88;;;42.75;;
74626;SDS011;63132;52.268;5.192;2022-12-10T04:26:55;153.05;;;44.53;;
74626;SDS011;63132;52.268;5.192;2022-12-10T04:29:25;204.30;;;43.38;;
74626;SDS011;63132;52.268;5.192;2022-12-10T04:31:52;196.10;;;42.58;;
74626;SDS011;63132;52.268;5.192;2022-12-10T04:34:18;250.35;;;44.28;;
74626;SDS011;63132;52.268;5.192;2022-12-10T04:36:44;177.00;;;45.27;;
74626;SDS011;63132;52.268;5.192;2022-12-10T04:39:09;195.20;;;45.63;;
74626;SDS011;63132;52.268;5.192;2022-12-10T04:41:37;153.63;;;43.60;;
74626;SDS011;63132;52.268;5.192;2022-12-10T04:44:06;172.63;;;44.60;;
74626;SDS011;63132;52.268;5.192;2022-12-10T04:46:31;138.17;;;43.90;;
74626;SDS011;63132;52.268;5.192;2022-12-10T04:48:57;139.10;;;43.87;;
74626;SDS011;63132;52.268;5.192;2022-12-10T04:51:22;127.20;;;42.23;;
74626;SDS011;63132;52.268;5.192;2022-12-10T04:53:48;113.28;;;42.17;;
74626;SDS011;63132;52.268;5.192;2022-12-10T04:56:13;116.67;;;40.33;;
74626;SDS011;63132;52.268;5.192;2022-12-10T04:58:38;109.33;;;40.63;;
74626;SDS011;63132;52.268;5.192;2022-12-10T05:01:04;103.17;;;40.30;;
74626;SDS011;63132;52.268;5.192;2022-12-10T05:03:32;161.68;;;41.72;;
74626;SDS011;63132;52.268;5.192;2022-12-10T05:06:02;137.35;;;41.10;;
74626;SDS011;63132;52.268;5.192;2022-12-10T05:08:32;137.20;;;40.85;;
74626;SDS011;63132;52.268;5.192;2022-12-10T05:11:02;97.13;;;38.17;;
74626;SDS011;63132;52.268;5.192;2022-12-10T05:13:29;123.20;;;40.78;;
74626;SDS011;63132;52.268;5.192;2022-12-10T05:15:54;134.73;;;40.17;;
74626;SDS011;63132;52.268;5.192;2022-12-10T05:18:21;150.73;;;42.50;;
74626;SDS011;63132;52.268;5.192;2022-12-10T05:20:46;123.27;;;40.93;;
74626;SDS011;63132;52.268;5.192;2022-12-10T05:23:11;139.50;;;42.07;;
74626;SDS011;63132;52.268;5.192;2022-12-10T05:25:59;150.77;;;40.17;;
74626;SDS011;63132;52.268;5.192;2022-12-10T05:28:29;121.05;;;41.00;;
74626;SDS011;63132;52.268;5.192;2022-12-10T05:30:56;117.10;;;40.17;;
74626;SDS011;63132;52.268;5.192;2022-12-10T05:33:22;151.52;;;41.55;;
74626;SDS011;63132;52.268;5.192;2022-12-10T05:35:55;160.55;;;42.92;;
74626;SDS011;63132;52.268;5.192;2022-12-10T05:38:23;131.90;;;42.53;;
74626;SDS011;63132;52.268;5.192;2022-12-10T05:40:49;122.95;;;42.60;;
74626;SDS011;63132;52.268;5.192;2022-12-10T05:43:14;146.93;;;43.67;;
74626;SDS011;63132;52.268;5.192;2022-12-10T05:45:40;125.47;;;42.42;;
74626;SDS011;63132;52.268;5.192;2022-12-10T05:48:05;134.93;;;43.77;;
74626;SDS011;63132;52.268;5.192;2022-12-10T05:50:31;138.57;;;44.70;;
74626;SDS011;63132;52.268;5.192;2022-12-10T05:52:57;125.97;;;44.20;;
74626;SDS011;63132;52.268;5.192;2022-12-10T05:55:23;154.87;;;44.10;;
74626;SDS011;63132;52.268;5.192;2022-12-10T05:57:49;112.25;;;43.17;;
74626;SDS011;63132;52.268;5.192;2022-12-10T06:00:15;116.63;;;42.65;;
74626;SDS011;63132;52.268;5.192;2022-12-10T06:02:40;113.40;;;42.37;;
74626;SDS011;63132;52.268;5.192;2022-12-10T06:05:06;111.00;;;39.33;;
74626;SDS011;63132;52.268;5.192;2022-12-10T06:07:31;94.60;;;40.20;;
74626;SDS011;63132;52.268;5.192;2022-12-10T06:09:57;100.03;;;35.77;;
74626;SDS011;63132;52.268;5.192;2022-12-10T06:12:22;91.37;;;38.20;;
74626;SDS011;63132;52.268;5.192;2022-12-10T06:14:48;91.00;;;38.27;;
74626;SDS011;63132;52.268;5.192;2022-12-10T06:17:13;98.73;;;36.83;;
74626;SDS011;63132;52.268;5.192;2022-12-10T06:19:39;108.00;;;38.27;;
74626;SDS011;63132;52.268;5.192;2022-12-10T06:22:04;95.70;;;34.10;;
74626;SDS011;63132;52.268;5.192;2022-12-10T06:24:29;82.47;;;32.00;;
74626;SDS011;63132;52.268;5.192;2022-12-10T06:26:55;99.03;;;33.10;;
74626;SDS011;63132;52.268;5.192;2022-12-10T06:29:20;115.90;;;34.80;;
74626;SDS011;63132;52.268;5.192;2022-12-10T06:31:45;97.17;;;35.13;;
74626;SDS011;63132;52.268;5.192;2022-12-10T06:34:11;101.27;;;36.50;;
74626;SDS011;63132;52.268;5.192;2022-12-10T06:36:36;102.18;;;36.50;;
74626;SDS011;63132;52.268;5.192;2022-12-10T06:39:02;117.57;;;39.00;;
74626;SDS011;63132;52.268;5.192;2022-12-10T06:41:28;150.52;;;39.33;;
74626;SDS011;63132;52.268;5.192;2022-12-10T06:43:53;121.27;;;40.13;;
74626;SDS011;63132;52.268;5.192;2022-12-10T06:46:19;122.33;;;38.50;;
74626;SDS011;63132;52.268;5.192;2022-12-10T06:48:46;125.72;;;34.40;;
74626;SDS011;63132;52.268;5.192;2022-12-10T06:51:12;95.90;;;33.10;;
74626;SDS011;63132;52.268;5.192;2022-12-10T06:53:41;113.38;;;33.25;;
74626;SDS011;63132;52.268;5.192;2022-12-10T06:56:07;112.47;;;35.60;;
74626;SDS011;63132;52.268;5.192;2022-12-10T06:58:36;95.63;;;34.70;;
74626;SDS011;63132;52.268;5.192;2022-12-10T07:01:10;92.82;;;35.10;;
74626;SDS011;63132;52.268;5.192;2022-12-10T07:03:39;117.55;;;35.10;;
74626;SDS011;63132;52.268;5.192;2022-12-10T07:06:06;106.97;;;34.70;;
74626;SDS011;63132;52.268;5.192;2022-12-10T07:08:33;105.05;;;33.50;;
74626;SDS011;63132;52.268;5.192;2022-12-10T07:10:58;79.23;;;32.57;;
74626;SDS011;63132;52.268;5.192;2022-12-10T07:13:24;86.73;;;33.43;;
74626;SDS011;63132;52.268;5.192;2022-12-10T07:15:50;83.43;;;32.20;;
74626;SDS011;63132;52.268;5.192;2022-12-10T07:18:15;103.53;;;33.07;;
74626;SDS011;63132;52.268;5.192;2022-12-10T07:20:40;105.37;;;33.17;;
74626;SDS011;63132;52.268;5.192;2022-12-10T07:23:06;107.70;;;33.53;;
74626;SDS011;63132;52.268;5.192;2022-12-10T07:25:32;70.13;;;31.30;;
74626;SDS011;63132;52.268;5.192;2022-12-10T07:27:58;93.50;;;33.78;;
74626;SDS011;63132;52.268;5.192;2022-12-10T07:30:23;91.13;;;34.27;;
74626;SDS011;63132;52.268;5.192;2022-12-10T07:32:49;100.27;;;35.50;;
74626;SDS011;63132;52.268;5.192;2022-12-10T07:35:14;95.70;;;32.90;;
74626;SDS011;63132;52.268;5.192;2022-12-10T07:37:40;80.23;;;31.57;;
74626;SDS011;63132;52.268;5.192;2022-12-10T07:40:05;107.10;;;30.77;;
74626;SDS011;63132;52.268;5.192;2022-12-10T07:42:31;76.10;;;29.90;;
74626;SDS011;63132;52.268;5.192;2022-12-10T07:44:56;91.47;;;30.50;;
74626;SDS011;63132;52.268;5.192;2022-12-10T07:47:22;73.60;;;29.73;;
74626;SDS011;63132;52.268;5.192;2022-12-10T07:49:47;65.17;;;29.33;;
74626;SDS011;63132;52.268;5.192;2022-12-10T07:52:12;80.03;;;31.10;;
74626;SDS011;63132;52.268;5.192;2022-12-10T07:54:38;74.67;;;31.47;;
74626;SDS011;63132;52.268;5.192;2022-12-10T07:57:03;76.93;;;32.00;;
74626;SDS011;63132;52.268;5.192;2022-12-10T07:59:29;102.50;;;32.70;;
74626;SDS011;63132;52.268;5.192;2022-12-10T08:01:55;100.30;;;34.45;;
74626;SDS011;63132;52.268;5.192;2022-12-10T08:04:21;83.70;;;33.20;;
74626;SDS011;63132;52.268;5.192;2022-12-10T08:06:46;84.85;;;31.98;;
74626;SDS011;63132;52.268;5.192;2022-12-10T08:09:12;90.38;;;31.30;;
74626;SDS011;63132;52.268;5.192;2022-12-10T08:11:38;78.00;;;30.88;;
74626;SDS011;63132;52.268;5.192;2022-12-10T08:14:03;89.35;;;31.88;;
74626;SDS011;63132;52.268;5.192;2022-12-10T08:16:29;73.50;;;31.43;;
74626;SDS011;63132;52.268;5.192;2022-12-10T08:18:56;77.40;;;31.75;;
74626;SDS011;63132;52.268;5.192;2022-12-10T08:21:23;69.65;;;32.00;;
74626;SDS011;63132;52.268;5.192;2022-12-10T08:23:51;70.55;;;31.23;;
74626;SDS011;63132;52.268;5.192;2022-12-10T08:26:18;91.40;;;31.50;;
74626;SDS011;63132;52.268;5.192;2022-12-10T08:28:48;87.90;;;31.23;;
74626;SDS011;63132;52.268;5.192;2022-12-10T08:31:15;69.82;;;31.00;;
74626;SDS011;63132;52.268;5.192;2022-12-10T08:33:41;68.95;;;28.77;;
74626;SDS011;63132;52.268;5.192;2022-12-10T08:36:07;75.75;;;29.92;;
74626;SDS011;63132;52.268;5.192;2022-12-10T08:38:35;74.57;;;31.20;;
74626;SDS011;63132;52.268;5.192;2022-12-10T08:41:10;67.25;;;30.27;;
74626;SDS011;63132;52.268;5.192;2022-12-10T08:43:38;87.20;;;31.63;;
74626;SDS011;63132;52.268;5.192;2022-12-10T08:46:03;72.27;;;30.80;;
74626;SDS011;63132;52.268;5.192;2022-12-10T08:48:30;82.95;;;30.83;;
74626;SDS011;63132;52.268;5.192;2022-12-10T08:50:56;68.32;;;30.33;;
74626;SDS011;63132;52.268;5.192;2022-12-10T08:53:25;76.17;;;29.13;;
74626;SDS011;63132;52.268;5.192;2022-12-10T08:55:53;76.03;;;31.13;;
74626;SDS011;63132;52.268;5.192;2022-12-10T08:58:31;77.65;;;30.70;;
74626;SDS011;63132;52.268;5.192;2022-12-10T09:00:57;72.35;;;30.50;;
74626;SDS011;63132;52.268;5.192;2022-12-10T09:03:27;66.63;;;29.92;;
74626;SDS011;63132;52.268;5.192;2022-12-10T09:05:52;77.30;;;31.97;;
74626;SDS011;63132;52.268;5.192;2022-12-10T09:08:21;91.00;;;32.63;;
74626;SDS011;63132;52.268;5.192;2022-12-10T09:10:46;73.68;;;32.28;;
74626;SDS011;63132;52.268;5.192;2022-12-10T09:13:12;77.60;;;33.47;;
74626;SDS011;63132;52.268;5.192;2022-12-10T09:15:37;89.83;;;33.13;;
74626;SDS011;63132;52.268;5.192;2022-12-10T09:18:02;78.77;;;33.87;;
74626;SDS011;63132;52.268;5.192;2022-12-10T09:20:31;82.95;;;31.33;;
74626;SDS011;63132;52.268;5.192;2022-12-10T09:23:00;85.65;;;31.75;;
74626;SDS011;63132;52.268;5.192;2022-12-10T09:25:26;73.68;;;32.78;;
74626;SDS011;63132;52.268;5.192;2022-12-10T09:27:52;90.90;;;34.00;;
74626;SDS011;63132;52.268;5.192;2022-12-10T09:30:17;78.57;;;32.73;;
74626;SDS011;63132;52.268;5.192;2022-12-10T09:32:46;70.50;;;33.67;;
74626;SDS011;63132;52.268;5.192;2022-12-10T09:35:13;86.53;;;34.78;;
74626;SDS011;63132;52.268;5.192;2022-12-10T09:37:39;69.67;;;33.97;;
74626;SDS011;63132;52.268;5.192;2022-12-10T09:40:04;71.73;;;34.07;;
74626;SDS011;63132;52.268;5.192;2022-12-10T09:42:33;99.17;;;33.27;;
74626;SDS011;63132;52.268;5.192;2022-12-10T09:47:45;68.10;;;30.92;;
74626;SDS011;63132;52.268;5.192;2022-12-10T09:53:11;74.35;;;33.75;;
74626;SDS011;63132;52.268;5.192;2022-12-10T09:55:42;74.18;;;34.83;;
74626;SDS011;63132;52.268;5.192;2022-12-10T09:58:13;66.35;;;31.83;;
74626;SDS011;63132;52.268;5.192;2022-12-10T10:00:45;80.57;;;34.03;;
74626;SDS011;63132;52.268;5.192;2022-12-10T10:03:13;63.60;;;33.50;;
74626;SDS011;63132;52.268;5.192;2022-12-10T10:05:41;73.63;;;33.80;;
74626;SDS011;63132;52.268;5.192;2022-12-10T10:11:09;73.45;;;35.42;;
74626;SDS011;63132;52.268;5.192;2022-12-10T10:13:39;80.75;;;35.15;;
74626;SDS011;63132;52.268;5.192;2022-12-10T10:16:13;84.20;;;34.92;;
74626;SDS011;63132;52.268;5.192;2022-12-10T10:18:45;78.67;;;33.90;;
74626;SDS011;63132;52.268;5.192;2022-12-10T10:23:55;90.53;;;34.20;;
74626;SDS011;63132;52.268;5.192;2022-12-10T10:26:23;89.45;;;35.85;;
74626;SDS011;63132;52.268;5.192;2022-12-10T10:28:51;93.53;;;36.03;;
74626;SDS011;63132;52.268;5.192;2022-12-10T10:31:24;83.50;;;36.13;;
74626;SDS011;63132;52.268;5.192;2022-12-10T10:33:55;77.55;;;32.63;;
74626;SDS011;63132;52.268;5.192;2022-12-10T10:36:29;78.30;;;34.93;;
74626;SDS011;63132;52.268;5.192;2022-12-10T10:38:56;80.40;;;35.28;;
74626;SDS011;63132;52.268;5.192;2022-12-10T10:41:34;76.20;;;35.28;;
74626;SDS011;63132;52.268;5.192;2022-12-10T10:44:04;86.28;;;38.88;;
74626;SDS011;63132;52.268;5.192;2022-12-10T10:46:29;89.07;;;39.22;;
74626;SDS011;63132;52.268;5.192;2022-12-10T10:51:53;96.50;;;38.88;;
74626;SDS011;63132;52.268;5.192;2022-12-10T10:54:34;113.30;;;37.63;;
74626;SDS011;63132;52.268;5.192;2022-12-10T10:57:06;90.72;;;37.72;;
74626;SDS011;63132;52.268;5.192;2022-12-10T10:59:37;85.80;;;37.90;;
74626;SDS011;63132;52.268;5.192;2022-12-10T11:02:09;98.30;;;35.38;;
74626;SDS011;63132;52.268;5.192;2022-12-10T11:04:47;78.18;;;35.58;;
74626;SDS011;63132;52.268;5.192;2022-12-10T11:09:55;87.38;;;36.85;;
74626;SDS011;63132;52.268;5.192;2022-12-10T11:12:28;83.63;;;36.77;;
74626;SDS011;63132;52.268;5.192;2022-12-10T11:15:02;76.95;;;35.33;;
74626;SDS011;63132;52.268;5.192;2022-12-10T11:17:48;87.80;;;37.15;;
74626;SDS011;63132;52.268;5.192;2022-12-10T11:22:50;76.32;;;35.38;;
74626;SDS011;63132;52.268;5.192;2022-12-10T11:25:18;89.15;;;37.30;;
74626;SDS011;63132;52.268;5.192;2022-12-10T11:28:06;88.63;;;37.55;;
74626;SDS011;63132;52.268;5.192;2022-12-10T11:31:11;114.30;;;35.47;;
74626;SDS011;63132;52.268;5.192;2022-12-10T11:39:10;81.72;;;36.95;;
74626;SDS011;63132;52.268;5.192;2022-12-10T11:44:58;90.20;;;36.33;;
74626;SDS011;63132;52.268;5.192;2022-12-10T11:47:38;89.17;;;36.13;;
74626;SDS011;63132;52.268;5.192;2022-12-10T12:01:00;95.85;;;34.20;;
74626;SDS011;63132;52.268;5.192;2022-12-10T12:08:52;103.20;;;37.67;;
74626;SDS011;63132;52.268;5.192;2022-12-10T12:14:16;91.68;;;36.85;;
74626;SDS011;63132;52.268;5.192;2022-12-10T12:16:48;95.45;;;39.03;;
74626;SDS011;63132;52.268;5.192;2022-12-10T12:19:25;93.15;;;39.17;;
74626;SDS011;63132;52.268;5.192;2022-12-10T12:21:58;98.43;;;39.80;;
74626;SDS011;63132;52.268;5.192;2022-12-10T12:24:38;99.20;;;40.40;;
74626;SDS011;63132;52.268;5.192;2022-12-10T12:27:12;103.20;;;40.25;;
74626;SDS011;63132;52.268;5.192;2022-12-10T12:30:02;97.43;;;38.38;;
74626;SDS011;63132;52.268;5.192;2022-12-10T12:32:45;105.45;;;37.90;;
74626;SDS011;63132;52.268;5.192;2022-12-10T12:35:41;97.05;;;35.33;;
74626;SDS011;63132;52.268;5.192;2022-12-10T12:41:25;90.68;;;37.08;;
74626;SDS011;63132;52.268;5.192;2022-12-10T12:46:54;96.30;;;38.15;;
74626;SDS011;63132;52.268;5.192;2022-12-10T12:49:22;93.05;;;36.70;;
74626;SDS011;63132;52.268;5.192;2022-12-10T12:54:45;101.80;;;34.20;;
74626;SDS011;63132;52.268;5.192;2022-12-10T12:57:14;83.60;;;33.60;;
74626;SDS011;63132;52.268;5.192;2022-12-10T12:59:53;93.47;;;32.83;;
74626;SDS011;63132;52.268;5.192;2022-12-10T13:05:25;81.32;;;34.08;;
74626;SDS011;63132;52.268;5.192;2022-12-10T13:10:53;82.10;;;34.67;;
74626;SDS011;63132;52.268;5.192;2022-12-10T13:13:40;86.30;;;34.20;;
74626;SDS011;63132;52.268;5.192;2022-12-10T13:25:03;67.00;;;29.50;;
74626;SDS011;63132;52.268;5.192;2022-12-10T13:32:20;73.18;;;28.90;;
74626;SDS011;63132;52.268;5.192;2022-12-10T13:35:15;74.18;;;30.20;;
74626;SDS011;63132;52.268;5.192;2022-12-10T13:37:34;70.38;;;30.45;;
74626;SDS011;63132;52.268;5.192;2022-12-10T13:42:39;80.43;;;33.05;;
74626;SDS011;63132;52.268;5.192;2022-12-10T13:45:29;81.18;;;32.72;;
74626;SDS011;63132;52.268;5.192;2022-12-10T13:48:38;76.22;;;33.38;;
74626;SDS011;63132;52.268;5.192;2022-12-10T13:53:49;79.80;;;32.23;;
74626;SDS011;63132;52.268;5.192;2022-12-10T13:56:20;76.03;;;31.33;;
74626;SDS011;63132;52.268;5.192;2022-12-10T14:07:39;78.00;;;30.83;;
74626;SDS011;63132;52.268;5.192;2022-12-10T14:10:09;93.40;;;28.95;;
74626;SDS011;63132;52.268;5.192;2022-12-10T14:12:40;75.18;;;30.85;;
74626;SDS011;63132;52.268;5.192;2022-12-10T14:15:08;80.00;;;30.50;;
74626;SDS011;63132;52.268;5.192;2022-12-10T14:17:43;75.78;;;30.15;;
74626;SDS011;63132;52.268;5.192;2022-12-10T14:20:17;69.82;;;29.58;;
74626;SDS011;63132;52.268;5.192;2022-12-10T14:22:46;110.05;;;32.13;;
74626;SDS011;63132;52.268;5.192;2022-12-10T14:25:14;82.90;;;30.33;;
74626;SDS011;63132;52.268;5.192;2022-12-10T14:27:43;82.85;;;30.75;;
74626;SDS011;63132;52.268;5.192;2022-12-10T14:30:16;105.55;;;32.90;;
74626;SDS011;63132;52.268;5.192;2022-12-10T14:32:43;91.47;;;31.63;;
74626;SDS011;63132;52.268;5.192;2022-12-10T14:35:13;95.95;;;32.97;;
74626;SDS011;63132;52.268;5.192;2022-12-10T14:37:42;104.22;;;33.78;;
74626;SDS011;63132;52.268;5.192;2022-12-10T14:40:12;93.05;;;32.55;;
74626;SDS011;63132;52.268;5.192;2022-12-10T14:42:44;98.35;;;32.53;;
74626;SDS011;63132;52.268;5.192;2022-12-10T14:45:13;98.70;;;33.95;;
74626;SDS011;63132;52.268;5.192;2022-12-10T14:47:40;88.05;;;33.65;;
74626;SDS011;63132;52.268;5.192;2022-12-10T14:50:10;107.40;;;34.92;;
74626;SDS011;63132;52.268;5.192;2022-12-10T14:52:45;108.65;;;35.28;;
74626;SDS011;63132;52.268;5.192;2022-12-10T14:55:16;109.90;;;41.05;;
74626;SDS011;63132;52.268;5.192;2022-12-10T14:57:44;101.50;;;40.72;;
74626;SDS011;63132;52.268;5.192;2022-12-10T15:00:16;132.93;;;37.40;;
74626;SDS011;63132;52.268;5.192;2022-12-10T15:02:44;101.13;;;36.40;;
74626;SDS011;63132;52.268;5.192;2022-12-10T15:05:15;90.60;;;35.53;;
74626;SDS011;63132;52.268;5.192;2022-12-10T15:10:51;118.38;;;37.55;;
74626;SDS011;63132;52.268;5.192;2022-12-10T15:13:22;107.25;;;38.28;;
74626;SDS011;63132;52.268;5.192;2022-12-10T15:15:59;95.00;;;36.45;;
74626;SDS011;63132;52.268;5.192;2022-12-10T15:28:40;99.75;;;35.65;;
74626;SDS011;63132;52.268;5.192;2022-12-10T15:33:55;101.80;;;35.78;;
74626;SDS011;63132;52.268;5.192;2022-12-10T15:39:04;99.33;;;36.60;;
74626;SDS011;63132;52.268;5.192;2022-12-10T15:41:37;107.43;;;38.75;;
74626;SDS011;63132;52.268;5.192;2022-12-10T15:46:49;122.25;;;41.40;;
74626;SDS011;63132;52.268;5.192;2022-12-10T15:49:15;163.02;;;55.70;;
74626;SDS011;63132;52.268;5.192;2022-12-10T15:51:40;120.73;;;45.10;;
74626;SDS011;63132;52.268;5.192;2022-12-10T15:54:17;109.00;;;40.90;;
74626;SDS011;63132;52.268;5.192;2022-12-10T15:57:14;101.43;;;41.25;;
74626;SDS011;63132;52.268;5.192;2022-12-10T15:59:50;113.00;;;41.15;;
74626;SDS011;63132;52.268;5.192;2022-12-10T16:07:45;103.45;;;36.30;;
74626;SDS011;63132;52.268;5.192;2022-12-10T16:10:13;111.97;;;37.28;;
74626;SDS011;63132;52.268;5.192;2022-12-10T16:12:40;97.07;;;35.80;;
74626;SDS011;63132;52.268;5.192;2022-12-10T16:15:07;123.75;;;38.80;;
74626;SDS011;63132;52.268;5.192;2022-12-10T16:17:39;115.30;;;39.75;;
74626;SDS011;63132;52.268;5.192;2022-12-10T16:22:45;120.20;;;37.00;;
74626;SDS011;63132;52.268;5.192;2022-12-10T16:25:12;105.27;;;35.07;;
74626;SDS011;63132;52.268;5.192;2022-12-10T16:27:39;117.03;;;36.90;;
74626;SDS011;63132;52.268;5.192;2022-12-10T16:30:28;110.77;;;36.70;;
74626;SDS011;63132;52.268;5.192;2022-12-10T16:32:57;115.82;;;36.15;;
74626;SDS011;63132;52.268;5.192;2022-12-10T16:35:23;105.18;;;33.97;;
74626;SDS011;63132;52.268;5.192;2022-12-10T16:37:49;96.18;;;34.45;;
74626;SDS011;63132;52.268;5.192;2022-12-10T16:40:20;104.63;;;34.47;;
74626;SDS011;63132;52.268;5.192;2022-12-10T16:42:48;98.85;;;34.10;;